Time;durP1;ratioP1;P1;durP2;ratioP2;P2;SDS_P1;SDS_P2;PMS_P1;PMS_P2;Temp;Humidity;BMP_temperature;BMP_pressure;BME280_temperature;BME280_humidity;BME280_pressure;Samples;Min_cycle;Max_cycle;Signal;HPM_P1;HPM_P2
2023/07/08 00:01:23;;;;;;;29.20;20.10;;;;;;;30.08;48.91;100044.95;108835;1257;60445;-69
2023/07/08 00:03:50;;;;;;;24.20;18.40;;;;;;;29.59;49.78;100041.50;108848;1258;58722;-68
2023/07/08 00:06:19;;;;;;;26.50;19.00;;;;;;;29.60;50.08;100039.68;108834;1257;73903;-68
2023/07/08 00:08:47;;;;;;;34.00;19.90;;;;;;;29.74;49.59;100032.92;108840;1257;70590;-70
2023/07/08 00:11:14;;;;;;;28.30;20.20;;;;;;;29.89;49.23;100026.27;108821;1257;72488;-69
2023/07/08 00:13:42;;;;;;;25.00;18.20;;;;;;;29.90;49.21;100013.36;108828;1258;61602;-69
2023/07/08 00:16:14;;;;;;;27.70;19.60;;;;;;;29.96;48.96;100009.13;108845;1257;59966;-69
2023/07/08 00:18:41;;;;;;;26.80;20.00;;;;;;;29.92;48.97;100012.20;108822;1257;73844;-70
2023/07/08 00:21:14;;;;;;;26.80;20.00;;;;;;;30.12;48.62;100012.20;108849;1257;69895;-71
2023/07/08 00:23:46;;;;;;;;;;;;;;;30.19;48.38;100010.69;108838;1257;71134;-70
2023/07/08 00:26:23;;;;;;;25.90;19.20;;;;;;;30.07;48.52;100007.65;108814;1257;60445;-69
2023/07/08 00:28:51;;;;;;;27.80;19.40;;;;;;;30.22;48.04;100003.44;108786;1258;58815;-68
2023/07/08 00:31:23;;;;;;;25.90;18.50;;;;;;;30.47;47.79;99998.59;108819;1257;73941;-70
2023/07/08 00:33:55;;;;;;;27.50;20.20;;;;;;;30.70;47.04;99995.56;108825;1257;70033;-69
2023/07/08 00:36:27;;;;;;;28.00;19.90;;;;;;;30.63;47.20;99995.38;108852;1259;72559;-71
2023/07/08 00:38:56;;;;;;;29.80;19.70;;;;;;;30.57;47.19;99995.95;108834;1257;61617;-71
2023/07/08 00:41:32;;;;;;;27.40;20.20;;;;;;;30.73;46.79;99994.30;108824;1257;59970;-69
2023/07/08 00:44:00;;;;;;;30.40;19.80;;;;;;;30.62;47.05;99993.63;108786;1257;74028;-69
2023/07/08 00:46:29;;;;;;;24.00;18.70;;;;;;;30.45;47.44;99994.16;108851;1257;70283;-70
2023/07/08 00:49:08;;;;;;;30.00;20.40;;;;;;;30.39;47.52;99995.81;108858;1257;72705;-71
2023/07/08 00:51:39;;;;;;;25.80;18.80;;;;;;;30.22;47.69;99999.83;108839;1257;61013;-70
2023/07/08 00:54:11;;;;;;;30.30;20.70;;;;;;;30.38;47.49;99998.29;108282;1258;58797;-69
2023/07/08 00:56:43;;;;;;;32.80;21.30;;;;;;;30.32;47.58;99993.20;107532;1257;72984;-69
2023/07/08 00:59:14;;;;;;;33.00;21.20;;;;;;;30.25;47.65;99990.66;107469;1258;70152;-70
2023/07/08 01:01:41;;;;;;;29.40;20.60;;;;;;;30.07;48.00;99994.66;107554;1257;71528;-68
2023/07/08 01:04:24;;;;;;;26.60;20.20;;;;;;;30.22;47.66;99994.23;107492;1259;61922;-68
2023/07/08 01:06:57;;;;;;;30.10;20.00;;;;;;;30.34;47.40;99999.42;107431;1259;60502;-69
2023/07/08 01:09:29;;;;;;;32.30;20.50;;;;;;;30.33;47.39;100000.53;108836;1257;74276;-69
2023/07/08 01:11:58;;;;;;;26.90;19.40;;;;;;;30.22;47.40;100001.42;108860;1257;70160;-69
2023/07/08 01:14:26;;;;;;;28.00;20.20;;;;;;;30.19;47.50;100002.17;108850;1257;72780;-71
2023/07/08 01:16:53;;;;;;;24.00;19.00;;;;;;;30.35;47.22;100005.11;108821;1259;60826;-68
2023/07/08 01:19:31;;;;;;;28.30;19.10;;;;;;;30.17;47.72;100005.32;108870;1259;60067;-70
2023/07/08 01:22:03;;;;;;;29.10;20.20;;;;;;;30.29;47.28;99999.38;108806;1257;73871;-69
2023/07/08 01:24:32;;;;;;;29.90;19.70;;;;;;;30.51;46.91;99995.79;108850;1259;70140;-69
2023/07/08 01:27:00;;;;;;;27.60;19.30;;;;;;;30.64;46.50;99990.52;108826;1257;72746;-68
2023/07/08 01:29:28;;;;;;;33.30;19.70;;;;;;;30.40;46.99;99989.84;108831;1259;61649;-68
2023/07/08 01:31:58;;;;;;;27.70;19.60;;;;;;;30.25;47.07;99989.72;108850;1263;60522;-70
2023/07/08 01:34:25;;;;;;;31.30;20.40;;;;;;;30.04;47.46;99990.41;108847;1257;74779;-70
2023/07/08 01:36:55;;;;;;;26.40;19.10;;;;;;;30.15;47.23;99990.23;108831;1259;69992;-70
2023/07/08 01:39:23;;;;;;;28.30;19.60;;;;;;;30.23;47.08;99987.10;108836;1257;72822;-69
2023/07/08 01:41:51;;;;;;;27.20;17.50;;;;;;;30.19;47.00;99986.77;108750;1259;61678;-69
2023/07/08 01:44:30;;;;;;;25.70;17.40;;;;;;;30.12;47.01;99981.83;108828;1257;60195;-69
2023/07/08 01:47:00;;;;;;;31.30;18.80;;;;;;;30.25;46.79;99981.54;108716;1257;73198;-68
2023/07/08 01:49:28;;;;;;;28.70;19.00;;;;;;;30.31;46.50;99979.56;108781;1262;69502;-69
2023/07/08 01:51:55;;;;;;;26.70;20.10;;;;;;;30.23;46.66;99983.21;108675;1259;72825;-70
2023/07/08 01:54:23;;;;;;;23.40;18.20;;;;;;;30.38;46.47;99986.85;108840;1258;60373;-69
2023/07/08 01:56:55;;;;;;;28.00;18.20;;;;;;;30.34;46.24;99992.46;108818;1259;60796;-70
2023/07/08 01:59:22;;;;;;;26.40;17.50;;;;;;;30.29;46.29;99995.40;108860;1257;72354;-69
2023/07/08 02:01:54;;;;;;;33.10;20.50;;;;;;;30.21;46.47;100000.56;108817;1260;70766;-69
2023/07/08 02:04:23;;;;;;;29.50;19.00;;;;;;;30.23;46.62;99996.42;108821;1257;70736;-69
2023/07/08 02:06:54;;;;;;;28.20;18.10;;;;;;;30.20;46.45;100002.07;108811;1258;61806;-68
2023/07/08 02:09:22;;;;;;;25.20;17.10;;;;;;;30.19;46.35;100013.91;108837;1257;60065;-71
2023/07/08 02:11:50;;;;;;;27.90;18.80;;;;;;;30.11;46.72;100017.82;108693;1259;197326;-68
2023/07/08 02:15:17;;;;;;;28.40;18.70;;;;;;;26.52;55.27;100032.26;104876;1289;601060;-69
2023/07/08 02:17:44;;;;;;;28.40;18.50;;;;;;;27.52;52.90;100035.50;107192;1264;61636;-68
2023/07/08 02:20:11;;;;;;;29.20;18.50;;;;;;;28.02;51.73;100038.86;107165;1264;59939;-69
2023/07/08 02:22:39;;;;;;;24.30;17.70;;;;;;;28.21;51.15;100035.67;107083;1263;72287;-68
2023/07/08 02:25:06;;;;;;;31.40;18.70;;;;;;;28.41;50.79;100031.73;107187;1263;69678;-68
2023/07/08 02:27:34;;;;;;;25.60;18.50;;;;;;;28.56;50.51;100031.61;107241;1264;72616;-69
2023/07/08 02:30:01;;;;;;;28.60;18.10;;;;;;;28.79;49.96;100027.59;107194;1263;210437;-69
2023/07/08 02:32:28;;;;;;;28.50;17.30;;;;;;;28.88;49.59;100029.39;107315;1262;59113;-71
2023/07/08 02:34:56;;;;;;;26.30;17.90;;;;;;;28.97;49.38;100027.48;107377;1266;72240;-68
2023/07/08 02:37:23;;;;;;;23.80;17.00;;;;;;;28.43;50.57;100028.84;107280;1263;69863;-68
2023/07/08 02:39:52;;;;;;;26.60;18.40;;;;;;;28.51;50.46;100027.94;107333;1264;72495;-69
2023/07/08 02:42:19;;;;;;;30.80;18.50;;;;;;;28.79;49.86;100025.08;107241;1262;63753;-68
2023/07/08 02:44:47;;;;;;;24.40;17.30;;;;;;;28.81;49.82;100021.83;107166;1264;59479;-68
2023/07/08 02:47:14;;;;;;;33.20;18.50;;;;;;;29.02;49.42;100022.20;108659;1263;74382;-68
2023/07/08 02:49:42;;;;;;;25.30;18.40;;;;;;;28.85;49.54;100019.69;108532;1263;69690;-69
2023/07/08 02:52:09;;;;;;;25.40;17.20;;;;;;;28.78;49.72;100018.55;108914;1256;72608;-68
2023/07/08 02:54:37;;;;;;;26.60;16.80;;;;;;;29.12;49.09;100010.73;108979;1257;60130;-69
2023/07/08 02:57:04;;;;;;;27.60;17.60;;;;;;;29.17;48.99;100015.58;109012;1256;59803;-69
2023/07/08 02:59:31;;;;;;;21.60;16.20;;;;;;;29.42;48.49;100015.61;109016;1256;71868;-69
2023/07/08 03:01:59;;;;;;;24.00;17.00;;;;;;;29.26;48.54;100012.75;109009;1257;70313;-68
2023/07/08 03:04:26;;;;;;;23.90;16.10;;;;;;;29.20;48.69;100011.96;108995;1257;70901;-68
2023/07/08 03:06:53;;;;;;;23.70;17.00;;;;;;;29.31;48.37;100011.12;108949;1257;60920;-69
2023/07/08 03:09:21;;;;;;;20.70;15.80;;;;;;;29.38;48.09;100014.89;109007;1256;59941;-70
2023/07/08 03:11:48;;;;;;;24.00;15.90;;;;;;;29.32;48.30;100014.56;108891;1256;72334;-67
2023/07/08 03:14:15;;;;;;;21.10;16.10;;;;;;;29.30;48.33;100013.86;108972;1256;69216;-69
2023/07/08 03:16:43;;;;;;;26.60;16.80;;;;;;;29.53;47.94;100008.52;108930;1259;71777;-69
2023/07/08 03:19:14;;;;;;;20.80;14.60;;;;;;;29.52;47.87;100012.36;108933;1260;60395;-69
2023/07/08 03:21:42;;;;;;;21.00;14.60;;;;;;;29.63;47.60;100011.09;109006;1256;59938;-70
2023/07/08 03:24:13;;;;;;;20.70;15.10;;;;;;;29.85;47.11;100007.89;108927;1259;71690;-69
2023/07/08 03:26:42;;;;;;;23.10;16.30;;;;;;;29.77;47.00;100006.70;108921;1256;70089;-69
2023/07/08 03:29:17;;;;;;;20.70;15.70;;;;;;;29.67;47.32;100004.81;108936;1257;72709;-68
2023/07/08 03:31:45;;;;;;;20.20;16.30;;;;;;;29.60;47.44;99999.02;108944;1257;61972;-68
2023/07/08 03:34:15;;;;;;;23.30;15.90;;;;;;;29.45;47.70;99997.55;108916;1257;59090;-70
2023/07/08 03:36:48;;;;;;;28.40;16.40;;;;;;;29.51;47.66;99996.16;108927;1257;73308;-69
2023/07/08 03:39:21;;;;;;;21.50;15.80;;;;;;;29.63;47.40;99992.77;108931;1256;70071;-70
2023/07/08 03:41:48;;;;;;;33.20;16.40;;;;;;;29.87;47.05;99983.98;108905;1256;72241;-69
2023/07/08 03:44:16;;;;;;;25.50;16.20;;;;;;;29.85;46.86;99978.61;108878;1256;60714;-69
2023/07/08 03:46:44;;;;;;;27.10;16.10;;;;;;;30.02;46.33;99972.96;108927;1257;58783;-70
2023/07/08 03:49:13;;;;;;;23.60;15.20;;;;;;;29.83;46.72;99970.33;108874;1257;71864;-68
2023/07/08 03:51:40;;;;;;;21.50;14.90;;;;;;;29.82;46.68;99969.73;108898;1258;70308;-69
2023/07/08 03:54:11;;;;;;;23.60;16.00;;;;;;;29.83;46.59;99969.80;108903;1257;71227;-68
2023/07/08 03:56:39;;;;;;;22.00;15.40;;;;;;;29.89;46.53;99963.15;108820;1257;61730;-66
2023/07/08 03:59:07;;;;;;;26.80;15.50;;;;;;;29.30;47.68;99966.86;108850;1257;58276;-69
2023/07/08 04:01:35;;;;;;;23.30;15.00;;;;;;;28.87;48.62;99955.69;108856;1257;73064;-69
2023/07/08 04:04:02;;;;;;;24.70;15.60;;;;;;;28.88;48.80;99951.95;108884;1257;69055;-69
2023/07/08 04:06:30;;;;;;;25.90;15.90;;;;;;;28.53;49.36;99947.89;108804;1257;72727;-69
2023/07/08 04:08:57;;;;;;;22.00;15.40;;;;;;;28.64;49.34;99951.13;108933;1257;62632;-70
2023/07/08 04:11:24;;;;;;;21.00;14.30;;;;;;;28.93;48.74;99946.83;108909;1257;59932;-69
2023/07/08 04:13:52;;;;;;;20.80;14.00;;;;;;;28.90;48.55;99937.95;108935;1257;72644;-69
2023/07/08 04:16:36;;;;;;;23.00;14.50;;;;;;;29.11;48.30;99944.59;108929;1257;69991;-69
2023/07/08 04:19:04;;;;;;;20.70;15.10;;;;;;;29.30;47.79;99937.75;108899;1257;71598;-68
2023/07/08 04:21:32;;;;;;;24.50;13.30;;;;;;;29.32;47.75;99935.35;108922;1259;60467;-69
2023/07/08 04:23:59;;;;;;;21.70;14.90;;;;;;;29.24;47.90;99925.85;108886;1257;61811;-69
2023/07/08 04:26:26;;;;;;;21.10;14.00;;;;;;;29.38;47.61;99922.49;108911;1257;71977;-68
2023/07/08 04:28:53;;;;;;;22.70;15.30;;;;;;;29.56;47.13;99917.14;108892;1260;71010;-68
2023/07/08 04:31:21;;;;;;;20.20;14.20;;;;;;;29.66;46.84;99917.72;108872;1259;72748;-71
2023/07/08 04:33:48;;;;;;;22.60;14.50;;;;;;;29.74;46.56;99911.34;108921;1257;61699;-69
2023/07/08 04:36:16;;;;;;;27.20;15.10;;;;;;;29.87;46.30;99912.73;108934;1257;59183;-69
2023/07/08 04:38:46;;;;;;;24.20;14.80;;;;;;;29.73;46.36;99913.85;108940;1257;73055;-69
2023/07/08 04:41:14;;;;;;;21.90;14.20;;;;;;;29.80;46.36;99919.33;108916;1257;70421;-70
2023/07/08 04:43:41;;;;;;;19.20;14.50;;;;;;;29.89;46.07;99923.16;108843;1257;73526;-69
2023/07/08 04:46:18;;;;;;;23.20;13.80;;;;;;;29.92;45.85;99918.28;108866;1258;60366;-69
2023/07/08 04:48:48;;;;;;;23.30;14.20;;;;;;;29.63;46.60;99914.80;108912;1256;60055;-69
2023/07/08 04:51:15;;;;;;;24.70;14.10;;;;;;;29.75;46.33;99917.05;108953;1256;71707;-67
2023/07/08 04:53:42;;;;;;;19.50;14.20;;;;;;;29.83;46.04;99915.52;108931;1256;69193;-71
2023/07/08 04:56:10;;;;;;;23.40;13.90;;;;;;;29.94;45.86;99911.46;108902;1257;72409;-69
2023/07/08 04:58:37;;;;;;;17.40;12.50;;;;;;;30.02;45.72;99911.55;108886;1257;59653;-69
2023/07/08 05:01:04;;;;;;;22.90;13.90;;;;;;;30.17;45.35;99908.10;108931;1257;59957;-69
2023/07/08 05:03:32;;;;;;;21.90;12.70;;;;;;;30.22;45.12;99905.81;108922;1257;71541;-69
2023/07/08 05:05:59;;;;;;;18.40;13.60;;;;;;;30.23;45.08;99903.57;108913;1257;70123;-69
2023/07/08 05:08:26;;;;;;;24.90;12.80;;;;;;;30.29;45.11;99902.64;108891;1257;72406;-70
2023/07/08 05:10:54;;;;;;;20.70;13.30;;;;;;;30.21;44.72;99895.34;108872;1257;62225;-70
2023/07/08 05:13:24;;;;;;;16.80;11.90;;;;;;;30.32;44.68;99897.05;108927;1256;59986;-70
2023/07/08 05:15:51;;;;;;;19.40;12.30;;;;;;;30.13;45.00;99896.29;108978;1257;71825;-69
2023/07/08 05:18:19;;;;;;;17.00;12.00;;;;;;;30.08;45.03;99890.96;108980;1257;70372;-70
2023/07/08 05:20:51;;;;;;;16.70;11.70;;;;;;;30.36;44.39;99882.80;108957;1256;73086;-69
2023/07/08 05:23:18;;;;;;;17.70;11.40;;;;;;;30.42;44.05;99877.86;108976;1256;60659;-69
2023/07/08 05:25:46;;;;;;;14.70;10.40;;;;;;;30.11;44.68;99871.95;109272;1253;60051;-70
2023/07/08 05:28:13;;;;;;;16.40;11.30;;;;;;;30.11;45.03;99871.73;109231;1253;73014;-70
2023/07/08 05:30:40;;;;;;;15.50;11.40;;;;;;;30.03;45.08;99872.89;109275;1253;70575;-71
2023/07/08 05:33:10;;;;;;;18.60;12.20;;;;;;;30.21;44.78;99880.55;109192;1253;72404;-69
2023/07/08 05:35:37;;;;;;;17.40;11.40;;;;;;;30.20;44.80;99883.80;108986;1254;60352;-69
2023/07/08 05:38:04;;;;;;;15.80;10.80;;;;;;;30.27;44.96;99889.12;107928;1254;60012;-70
2023/07/08 05:40:32;;;;;;;19.50;10.60;;;;;;;30.42;44.83;99895.48;107974;1254;72998;-70
2023/07/08 05:42:59;;;;;;;16.60;10.70;;;;;;;30.52;44.55;99896.48;107964;1253;70072;-69
2023/07/08 05:45:26;;;;;;;15.70;10.40;;;;;;;30.53;44.48;99896.59;108467;1253;72044;-69
2023/07/08 05:47:54;;;;;;;17.70;10.80;;;;;;;30.21;45.01;99901.48;109218;1253;61709;-69
2023/07/08 05:50:21;;;;;;;14.50;10.30;;;;;;;30.50;44.61;99905.99;109289;1256;60509;-69
2023/07/08 05:52:49;;;;;;;15.50;10.30;;;;;;;30.58;44.58;99905.99;109331;1253;72372;-71
2023/07/08 05:55:16;;;;;;;14.70;11.00;;;;;;;30.30;45.03;99903.83;109330;1253;69940;-70
2023/07/08 05:57:43;;;;;;;19.80;11.10;;;;;;;30.15;45.35;99904.17;109221;1253;72455;-70
2023/07/08 06:00:11;;;;;;;16.00;10.60;;;;;;;29.97;45.66;99902.46;109311;1253;60454;-71
2023/07/08 06:02:40;;;;;;;17.10;10.30;;;;;;;30.06;45.49;99906.69;108837;1252;61956;-70
2023/07/08 06:05:08;;;;;;;16.70;10.70;;;;;;;30.17;45.23;99904.48;108067;1254;72685;-70
2023/07/08 06:07:36;;;;;;;17.60;10.40;;;;;;;30.27;45.15;99900.16;108004;1254;69141;-71
2023/07/08 06:10:03;;;;;;;14.50;10.30;;;;;;;30.27;44.94;99902.92;108700;1253;73124;-70
2023/07/08 06:12:31;;;;;;;16.70;9.90;;;;;;;30.26;45.11;99899.80;109338;1252;61699;-71
2023/07/08 06:14:58;;;;;;;13.60;10.00;;;;;;;29.74;46.11;99902.52;109360;1253;62288;-70
2023/07/08 06:17:25;;;;;;;14.40;9.60;;;;;;;29.86;45.90;99903.70;109342;1253;73033;-71
2023/07/08 06:19:53;;;;;;;13.00;9.30;;;;;;;29.88;45.91;99902.61;109352;1253;72288;-70
2023/07/08 06:22:20;;;;;;;15.30;9.80;;;;;;;30.04;45.47;99901.27;109364;1252;73594;-71
2023/07/08 06:25:08;;;;;;;14.20;10.00;;;;;;;29.81;45.91;99905.09;109329;1253;60447;-70
2023/07/08 06:27:35;;;;;;;14.20;9.40;;;;;;;29.63;46.09;99905.77;109343;1253;58726;-70
2023/07/08 06:30:03;;;;;;;15.80;9.20;;;;;;;29.76;45.98;99904.27;109342;1254;72542;-70
2023/07/08 06:32:30;;;;;;;15.10;9.60;;;;;;;29.53;46.43;99911.00;109312;1252;70432;-72
2023/07/08 06:34:57;;;;;;;15.40;10.40;;;;;;;29.55;46.46;99912.27;109227;1253;71992;-70
2023/07/08 06:37:25;;;;;;;13.20;9.40;;;;;;;29.36;46.72;99920.80;109331;1254;61650;-71
2023/07/08 06:39:52;;;;;;;16.40;10.20;;;;;;;29.51;46.71;99920.40;109134;1253;58769;-71
2023/07/08 06:42:19;;;;;;;14.60;10.50;;;;;;;29.83;45.92;99921.29;108074;1252;74409;-70
2023/07/08 06:45:04;;;;;;;13.60;9.80;;;;;;;29.80;46.22;99924.77;107930;1254;71420;-71
2023/07/08 06:47:31;;;;;;;13.30;9.50;;;;;;;29.91;45.89;99926.91;107945;1253;72670;-71
2023/07/08 06:49:59;;;;;;;15.40;10.00;;;;;;;29.98;45.76;99924.82;107909;1253;60257;-71
2023/07/08 06:52:26;;;;;;;14.60;9.80;;;;;;;30.00;45.60;99927.60;107996;1253;60330;-70
2023/07/08 06:54:53;;;;;;;15.20;10.40;;;;;;;29.96;45.76;99929.14;107956;1254;73750;-71
2023/07/08 06:57:21;;;;;;;15.50;9.80;;;;;;;29.68;46.59;99928.39;108129;1254;69472;-70
2023/07/08 06:59:48;;;;;;;15.00;9.80;;;;;;;29.73;46.69;99936.45;107933;1253;72756;-71
2023/07/08 07:02:16;;;;;;;17.80;10.20;;;;;;;29.55;47.00;99945.60;107928;1254;61689;-70
2023/07/08 07:04:44;;;;;;;20.90;10.40;;;;;;;29.47;47.16;99945.30;108031;1257;60440;-70
2023/07/08 07:07:11;;;;;;;15.80;10.10;;;;;;;29.76;46.50;99953.59;107675;1254;72544;-72
2023/07/08 07:09:39;;;;;;;18.10;9.40;;;;;;;30.08;46.16;99948.73;107952;1254;70334;-71
2023/07/08 07:12:07;;;;;;;16.20;9.10;;;;;;;30.18;45.90;99952.51;109193;1253;71902;-70
2023/07/08 07:14:34;;;;;;;14.50;9.00;;;;;;;30.15;45.93;99951.13;108157;1253;60461;-71
2023/07/08 07:17:04;;;;;;;15.60;9.50;;;;;;;30.13;45.89;99949.73;107961;1254;61683;-71
2023/07/08 07:19:35;;;;;;;15.90;8.90;;;;;;;30.35;45.46;99956.47;107934;1254;72739;-71
2023/07/08 07:22:03;;;;;;;14.90;8.90;;;;;;;30.24;45.84;99953.45;107847;1253;70318;-71
2023/07/08 07:24:30;;;;;;;14.70;8.40;;;;;;;30.14;45.95;99949.53;107819;1254;73243;-73
2023/07/08 07:26:58;;;;;;;15.20;8.70;;;;;;;30.18;46.17;99949.38;108046;1254;61603;-73
2023/07/08 07:29:25;;;;;;;13.60;9.30;;;;;;;30.15;46.04;99947.42;109154;1252;58696;-71
2023/07/08 07:31:54;;;;;;;13.50;8.60;;;;;;;30.25;45.77;99948.02;109280;1253;73851;-71
2023/07/08 07:34:22;;;;;;;13.50;9.50;;;;;;;30.39;45.52;99947.95;109242;1254;70379;-71
2023/07/08 07:36:49;;;;;;;11.40;7.60;;;;;;;30.53;45.46;99946.41;109222;1254;72729;-70
2023/07/08 07:39:17;;;;;;;15.70;8.10;;;;;;;30.66;44.97;99946.09;109138;1253;61759;-71
2023/07/08 07:41:44;;;;;;;12.20;8.10;;;;;;;30.91;44.75;99948.70;109251;1253;58725;-70
2023/07/08 07:44:11;;;;;;;12.90;8.60;;;;;;;30.71;45.11;99943.81;109210;1253;74239;-72
2023/07/08 07:46:39;;;;;;;15.60;8.30;;;;;;;30.80;44.99;99942.05;109220;1253;69219;-71
2023/07/08 07:49:06;;;;;;;11.50;7.70;;;;;;;30.61;45.00;99945.95;109312;1254;73110;-71
2023/07/08 07:51:33;;;;;;;10.80;7.80;;;;;;;30.33;45.56;99949.00;109175;1252;62111;-69
2023/07/08 07:54:01;;;;;;;12.60;6.80;;;;;;;30.20;45.86;99948.82;109381;1253;58695;-70
2023/07/08 07:56:28;;;;;;;14.30;7.30;;;;;;;30.44;45.65;99949.15;109361;1254;73128;-72
2023/07/08 07:58:55;;;;;;;13.00;7.10;;;;;;;30.47;45.53;99946.42;109303;1253;69084;-71
2023/07/08 08:01:23;;;;;;;14.70;6.90;;;;;;;30.61;45.12;99946.11;108018;1256;72689;-71
2023/07/08 08:03:50;;;;;;;11.90;7.10;;;;;;;30.49;44.91;99940.17;108089;1253;62829;-72
2023/07/08 08:06:18;;;;;;;16.30;7.80;;;;;;;30.61;44.83;99945.63;108086;1256;60347;-70
2023/07/08 08:08:45;;;;;;;14.90;6.90;;;;;;;30.61;44.97;99941.45;108111;1253;72603;-70
2023/07/08 08:11:13;;;;;;;12.80;7.30;;;;;;;30.74;44.62;99943.80;108065;1254;72302;-70
2023/07/08 08:13:40;;;;;;;10.40;7.00;;;;;;;30.68;44.94;99944.90;107990;1253;72629;-72
2023/07/08 08:16:08;;;;;;;19.50;6.90;;;;;;;30.67;44.92;99945.87;109299;1253;60379;-72
2023/07/08 08:18:35;;;;;;;12.40;6.70;;;;;;;30.80;44.77;99950.89;109174;1253;60016;-70
2023/07/08 08:21:02;;;;;;;13.00;7.10;;;;;;;30.83;44.67;99951.18;107879;1253;74062;-70
2023/07/08 08:23:30;;;;;;;8.60;6.40;;;;;;;30.59;44.60;99955.39;107901;1258;68766;-72
2023/07/08 08:25:57;;;;;;;9.00;6.50;;;;;;;30.47;45.02;99958.17;107993;1253;73193;-70
2023/07/08 08:28:25;;;;;;;10.80;6.40;;;;;;;30.53;44.57;99965.80;108005;1256;62097;-72
2023/07/08 08:30:52;;;;;;;11.20;6.20;;;;;;;30.53;44.73;99969.41;108051;1252;60489;-71
2023/07/08 08:33:20;;;;;;;10.20;6.30;;;;;;;30.53;44.78;99972.13;108053;1253;72854;-71
2023/07/08 08:35:47;;;;;;;12.60;6.70;;;;;;;30.37;45.11;99973.94;108068;1254;70692;-70
2023/07/08 08:38:14;;;;;;;9.30;5.80;;;;;;;30.62;44.85;99974.23;108102;1256;72960;-70
2023/07/08 08:40:42;;;;;;;8.80;6.50;;;;;;;30.83;44.61;99970.76;108061;1256;60389;-71
2023/07/08 08:43:12;;;;;;;9.50;6.30;;;;;;;30.87;44.38;99974.83;108052;1253;60238;-70
2023/07/08 08:45:50;;;;;;;9.10;6.50;;;;;;;30.91;44.33;99975.20;108070;1253;73433;-70
2023/07/08 08:48:19;;;;;;;13.00;6.10;;;;;;;30.93;44.25;99976.78;108063;1256;71126;-71
2023/07/08 08:50:50;;;;;;;10.10;6.10;;;;;;;31.18;43.74;99982.16;107968;1254;72753;-70
2023/07/08 08:53:18;;;;;;;15.80;6.50;;;;;;;31.14;43.86;99987.20;108109;1253;60948;-70
2023/07/08 08:55:48;;;;;;;10.40;6.10;;;;;;;31.19;43.90;99993.10;107894;1254;60066;-70
2023/07/08 08:58:34;;;;;;;9.80;5.90;;;;;;;31.26;43.62;99996.19;107930;1258;72630;-71
2023/07/08 09:01:04;;;;;;;11.90;6.10;;;;;;;31.37;43.55;100004.62;107913;1253;70605;-71
2023/07/08 09:03:53;;;;;;;13.80;6.00;;;;;;;31.49;43.49;100011.63;107858;1254;72924;-69
2023/07/08 09:06:25;;;;;;;9.10;6.10;;;;;;;31.36;43.45;100012.66;108005;1254;61286;-70
2023/07/08 09:08:54;;;;;;;6.90;5.20;;;;;;;31.19;43.80;100023.23;108030;1253;59023;-70
2023/07/08 09:11:32;;;;;;;9.40;5.60;;;;;;;31.24;43.56;100024.58;108412;1252;73864;-72
2023/07/08 09:13:59;;;;;;;11.90;5.40;;;;;;;31.31;43.48;100022.95;109239;1254;70049;-70
2023/07/08 09:16:33;;;;;;;10.20;5.70;;;;;;;31.38;43.48;100025.81;109353;1254;71660;-71
2023/07/08 09:19:12;;;;;;;10.50;5.90;;;;;;;31.14;44.03;100026.70;109225;1253;61732;-71
2023/07/08 09:21:49;;;;;;;10.10;5.90;;;;;;;30.89;44.59;100026.55;109237;1254;58736;-71
2023/07/08 09:24:31;;;;;;;6.90;5.40;;;;;;;30.78;44.82;100034.64;109348;1252;73992;-72
2023/07/08 09:27:00;;;;;;;12.30;6.10;;;;;;;30.78;45.18;100029.40;109248;1252;70343;-71
2023/07/08 09:29:29;;;;;;;12.90;6.10;;;;;;;30.81;45.06;100033.17;109309;1252;71356;-71
2023/07/08 09:31:57;;;;;;;7.50;5.70;;;;;;;30.70;45.45;100034.51;109346;1253;60435;-71
2023/07/08 09:34:40;;;;;;;10.60;5.80;;;;;;;30.82;45.49;100030.02;109093;1254;60017;-70
2023/07/08 09:37:31;;;;;;;11.00;6.50;;;;;;;30.74;45.93;100032.76;109319;1256;73979;-72
2023/07/08 09:40:00;;;;;;;8.50;5.50;;;;;;;30.83;46.03;100031.86;109333;1254;70702;-72
2023/07/08 09:42:29;;;;;;;9.20;6.30;;;;;;;30.89;45.71;100035.99;109328;1254;71358;-71
2023/07/08 09:44:58;;;;;;;10.20;5.90;;;;;;;30.96;45.68;100035.71;109316;1252;60384;-71
2023/07/08 09:47:30;;;;;;;9.40;6.40;;;;;;;31.19;45.52;100032.65;109322;1253;58745;-70
2023/07/08 09:49:59;;;;;;;9.90;5.80;;;;;;;31.19;45.26;100032.79;109284;1254;72597;-72
2023/07/08 09:52:29;;;;;;;12.60;6.30;;;;;;;31.32;45.24;100036.27;109186;1252;69995;-71
2023/07/08 09:54:56;;;;;;;10.40;5.80;;;;;;;31.45;44.59;100039.46;109361;1253;72679;-70
2023/07/08 09:57:27;;;;;;;12.50;6.00;;;;;;;31.48;44.18;100037.61;109341;1253;60380;-70
2023/07/08 09:59:58;;;;;;;9.50;5.90;;;;;;;31.49;44.46;100034.65;109241;1252;58842;-71
2023/07/08 10:02:27;;;;;;;9.20;5.40;;;;;;;31.28;44.57;100037.55;109233;1254;72556;-71
2023/07/08 10:04:56;;;;;;;6.70;5.50;;;;;;;31.18;44.81;100035.15;108576;1253;68859;-71
2023/07/08 10:07:23;;;;;;;8.40;5.70;;;;;;;31.20;44.84;100039.48;108052;1254;72833;-70
2023/07/08 10:09:53;;;;;;;9.50;5.40;;;;;;;31.16;44.96;100039.07;108062;1257;62424;-70
2023/07/08 10:12:21;;;;;;;7.80;5.50;;;;;;;31.08;45.01;100040.83;109331;1253;62586;-71
2023/07/08 10:15:14;;;;;;;14.80;5.50;;;;;;;31.15;45.06;100043.23;109331;1254;73733;-71
2023/07/08 10:17:41;;;;;;;9.70;5.70;;;;;;;31.22;45.22;100043.90;109148;1254;70040;-71
2023/07/08 10:20:13;;;;;;;10.40;5.50;;;;;;;31.00;45.52;100042.74;109331;1254;71350;-70
2023/07/08 10:23:28;;;;;;;7.60;5.20;;;;;;;30.93;45.73;100042.80;109337;1254;61639;-72
2023/07/08 10:26:08;;;;;;;8.00;5.60;;;;;;;31.25;45.30;100039.66;109003;1254;60635;-72
2023/07/08 10:28:45;;;;;;;7.50;5.60;;;;;;;31.38;44.96;100042.39;109314;1253;73805;-69
2023/07/08 10:31:33;;;;;;;9.60;5.20;;;;;;;31.38;45.33;100044.06;109325;1253;70371;-69
2023/07/08 10:34:38;;;;;;;10.30;5.50;;;;;;;31.42;45.18;100045.91;109228;1254;72425;-71
2023/07/08 10:37:11;;;;;;;16.80;5.80;;;;;;;31.44;45.27;100047.87;109207;1254;61742;-72
2023/07/08 10:40:00;;;;;;;8.70;5.60;;;;;;;31.63;45.10;100048.89;109230;1258;59963;-70
2023/07/08 10:42:43;;;;;;;8.60;5.50;;;;;;;31.56;45.14;100048.45;109316;1254;73799;-70
2023/07/08 10:45:15;;;;;;;9.70;5.20;;;;;;;31.57;44.90;100050.55;109324;1253;69933;-69
2023/07/08 10:47:55;;;;;;;10.00;5.80;;;;;;;31.15;45.67;100047.81;109296;1254;71436;-73
2023/07/08 10:50:35;;;;;;;7.90;5.00;;;;;;;30.56;47.15;100050.60;109276;1252;60910;-70
2023/07/08 10:53:26;;;;;;;9.70;5.10;;;;;;;30.50;47.27;100051.29;109257;1252;60278;-71
2023/07/08 10:56:11;;;;;;;9.90;5.60;;;;;;;30.29;47.71;100052.00;109124;1254;74285;-71
2023/07/08 10:59:03;;;;;;;14.50;5.40;;;;;;;30.52;47.44;100050.83;109058;1254;70273;-71
2023/07/08 11:01:45;;;;;;;8.60;5.20;;;;;;;30.50;47.65;100044.23;109220;1254;72779;-70
2023/07/08 11:04:31;;;;;;;7.80;5.10;;;;;;;30.36;47.87;100044.73;109199;1254;62279;-71
2023/07/08 11:07:03;;;;;;;10.90;6.00;;;;;;;30.37;47.58;100042.63;109212;1253;59968;-70
2023/07/08 11:09:41;;;;;;;9.30;4.90;;;;;;;30.39;47.61;100038.52;109108;1253;74867;-72
2023/07/08 11:12:31;;;;;;;8.10;4.60;;;;;;;30.58;47.49;100037.65;109013;1254;70025;-71
2023/07/08 11:15:04;;;;;;;6.50;4.30;;;;;;;30.54;47.52;100037.80;109304;1253;73313;-72
2023/07/08 11:17:36;;;;;;;9.00;4.40;;;;;;;30.47;47.38;100034.90;109142;1253;61137;-72
2023/07/08 11:20:13;;;;;;;11.90;4.50;;;;;;;30.37;47.49;100030.66;107805;1253;60651;-72
2023/07/08 11:22:46;;;;;;;11.30;5.20;;;;;;;30.44;47.72;100028.14;107964;1254;73877;-72
2023/07/08 11:25:17;;;;;;;8.80;4.60;;;;;;;30.58;47.53;100024.90;108020;1254;69919;-72
2023/07/08 11:27:45;;;;;;;;;;;;;;;30.47;47.61;100023.38;107904;1254;70665;-72